sensor_id;sensor_type;location;lat;lon;timestamp;pressure;altitude;pressure_sealevel;temperature;humidity
12146;BME280;6136;47.032;15.398;2022-10-13T00:01:18;98233.34;;;10.86;nan
12146;BME280;6136;47.032;15.398;2022-10-13T00:03:47;98235.38;;;10.81;nan
12146;BME280;6136;47.032;15.398;2022-10-13T00:06:20;98236.13;;;10.83;nan
12146;BME280;6136;47.032;15.398;2022-10-13T00:08:49;98234.59;;;10.79;nan
12146;BME280;6136;47.032;15.398;2022-10-13T00:11:21;98225.25;;;10.72;nan
12146;BME280;6136;47.032;15.398;2022-10-13T00:13:50;98228.91;;;10.69;nan
12146;BME280;6136;47.032;15.398;2022-10-13T00:16:20;98236.94;;;10.68;nan
12146;BME280;6136;47.032;15.398;2022-10-13T00:18:49;98230.09;;;10.64;nan
12146;BME280;6136;47.032;15.398;2022-10-13T00:21:20;98230.09;;;10.64;nan
12146;BME280;6136;47.032;15.398;2022-10-13T00:23:49;98226.03;;;10.57;nan
12146;BME280;6136;47.032;15.398;2022-10-13T00:26:23;98218.34;;;10.52;nan
12146;BME280;6136;47.032;15.398;2022-10-13T00:28:52;98211.53;;;10.46;nan
12146;BME280;6136;47.032;15.398;2022-10-13T00:31:23;98217.69;;;10.47;nan
12146;BME280;6136;47.032;15.398;2022-10-13T00:33:52;98210.84;;;10.43;nan
12146;BME280;6136;47.032;15.398;2022-10-13T00:36:22;98221.22;;;10.47;nan
12146;BME280;6136;47.032;15.398;2022-10-13T00:38:51;98217.00;;;10.43;nan
12146;BME280;6136;47.032;15.398;2022-10-13T00:41:21;98215.63;;;10.36;nan
12146;BME280;6136;47.032;15.398;2022-10-13T00:43:55;98212.19;;;10.34;nan
12146;BME280;6136;47.032;15.398;2022-10-13T00:46:27;98203.84;;;10.25;nan
12146;BME280;6136;47.032;15.398;2022-10-13T00:48:59;98200.31;;;10.24;nan
12146;BME280;6136;47.032;15.398;2022-10-13T00:51:32;98206.81;;;10.19;nan
12146;BME280;6136;47.032;15.398;2022-10-13T00:54:03;98207.53;;;10.22;nan
12146;BME280;6136;47.032;15.398;2022-10-13T00:56:35;98204.06;;;10.20;nan
12146;BME280;6136;47.032;15.398;2022-10-13T00:59:08;98209.31;;;10.22;nan
12146;BME280;6136;47.032;15.398;2022-10-13T01:01:40;98202.44;;;10.18;nan
12146;BME280;6136;47.032;15.398;2022-10-13T01:04:08;98203.50;;;10.13;nan
12146;BME280;6136;47.032;15.398;2022-10-13T01:06:37;98197.34;;;10.13;nan
12146;BME280;6136;47.032;15.398;2022-10-13T01:09:06;98207.22;;;10.09;nan
12146;BME280;6136;47.032;15.398;2022-10-13T01:11:50;98192.81;;;9.98;nan
12146;BME280;6136;47.032;15.398;2022-10-13T01:14:29;98199.03;;;9.97;nan
12146;BME280;6136;47.032;15.398;2022-10-13T01:17:08;98190.16;;;9.98;nan
12146;BME280;6136;47.032;15.398;2022-10-13T01:20:02;98194.69;;;9.96;nan
12146;BME280;6136;47.032;15.398;2022-10-13T01:22:54;98191.16;;;9.95;nan
12146;BME280;6136;47.032;15.398;2022-10-13T01:25:43;98193.03;;;9.93;nan
12146;BME280;6136;47.032;15.398;2022-10-13T01:28:32;98174.50;;;9.93;nan
12146;BME280;6136;47.032;15.398;2022-10-13T01:31:08;98178.25;;;9.89;nan
12146;BME280;6136;47.032;15.398;2022-10-13T01:33:43;98189.38;;;9.96;nan
12146;BME280;6136;47.032;15.398;2022-10-13T01:36:20;98184.09;;;9.96;nan
12146;BME280;6136;47.032;15.398;2022-10-13T01:38:54;98186.97;;;9.91;nan
12146;BME280;6136;47.032;15.398;2022-10-13T01:41:28;98192.66;;;9.84;nan
12146;BME280;6136;47.032;15.398;2022-10-13T01:44:04;98196.34;;;9.80;nan
12146;BME280;6136;47.032;15.398;2022-10-13T01:46:37;98193.03;;;9.76;nan
12146;BME280;6136;47.032;15.398;2022-10-13T01:49:09;98187.78;;;9.74;nan
12146;BME280;6136;47.032;15.398;2022-10-13T01:51:39;98187.25;;;9.68;nan
12146;BME280;6136;47.032;15.398;2022-10-13T01:54:08;98178.75;;;9.61;nan
12146;BME280;6136;47.032;15.398;2022-10-13T01:56:36;98181.41;;;9.61;nan
12146;BME280;6136;47.032;15.398;2022-10-13T01:59:09;98186.75;;;9.60;nan
12146;BME280;6136;47.032;15.398;2022-10-13T02:01:53;98183.38;;;9.56;nan
12146;BME280;6136;47.032;15.398;2022-10-13T02:04:36;98171.25;;;9.52;nan
12146;BME280;6136;47.032;15.398;2022-10-13T02:07:18;98169.59;;;9.50;nan
12146;BME280;6136;47.032;15.398;2022-10-13T02:09:56;98173.16;;;9.49;nan
12146;BME280;6136;47.032;15.398;2022-10-13T02:12:28;98172.47;;;9.45;nan
12146;BME280;6136;47.032;15.398;2022-10-13T02:14:59;98170.88;;;9.41;nan
12146;BME280;6136;47.032;15.398;2022-10-13T02:17:30;98170.81;;;9.43;nan
12146;BME280;6136;47.032;15.398;2022-10-13T02:19:58;98176.03;;;9.44;nan
12146;BME280;6136;47.032;15.398;2022-10-13T02:22:32;98165.13;;;9.33;nan
12146;BME280;6136;47.032;15.398;2022-10-13T02:25:05;98177.28;;;9.37;nan
12146;BME280;6136;47.032;15.398;2022-10-13T02:27:33;98172.28;;;9.31;nan
12146;BME280;6136;47.032;15.398;2022-10-13T02:30:03;98171.56;;;9.27;nan
12146;BME280;6136;47.032;15.398;2022-10-13T02:32:35;98166.63;;;9.20;nan
12146;BME280;6136;47.032;15.398;2022-10-13T02:35:04;98174.34;;;9.24;nan
12146;BME280;6136;47.032;15.398;2022-10-13T02:37:33;98176.06;;;9.25;nan
12146;BME280;6136;47.032;15.398;2022-10-13T02:40:01;98171.78;;;9.23;nan
12146;BME280;6136;47.032;15.398;2022-10-13T02:42:29;98181.44;;;9.24;nan
12146;BME280;6136;47.032;15.398;2022-10-13T02:45:00;98174.56;;;9.20;nan
12146;BME280;6136;47.032;15.398;2022-10-13T02:47:28;98173.06;;;9.14;nan
12146;BME280;6136;47.032;15.398;2022-10-13T02:49:59;98169.06;;;9.06;nan
12146;BME280;6136;47.032;15.398;2022-10-13T02:52:27;98175.06;;;9.09;nan
12146;BME280;6136;47.032;15.398;2022-10-13T02:54:56;98171.63;;;9.07;nan
12146;BME280;6136;47.032;15.398;2022-10-13T02:57:24;98169.34;;;9.00;nan
12146;BME280;6136;47.032;15.398;2022-10-13T02:59:52;98171.19;;;8.98;nan
12146;BME280;6136;47.032;15.398;2022-10-13T03:02:21;98163.44;;;8.94;nan
12146;BME280;6136;47.032;15.398;2022-10-13T03:04:49;98166.06;;;8.94;nan
12146;BME280;6136;47.032;15.398;2022-10-13T03:07:19;98170.44;;;8.95;nan
12146;BME280;6136;47.032;15.398;2022-10-13T03:09:48;98167.91;;;8.92;nan
12146;BME280;6136;47.032;15.398;2022-10-13T03:12:16;98172.34;;;8.92;nan
12146;BME280;6136;47.032;15.398;2022-10-13T03:14:45;98161.84;;;8.90;nan
12146;BME280;6136;47.032;15.398;2022-10-13T03:17:13;98166.47;;;8.85;nan
12146;BME280;6136;47.032;15.398;2022-10-13T03:19:41;98163.09;;;8.82;nan
12146;BME280;6136;47.032;15.398;2022-10-13T03:22:12;98176.41;;;8.80;nan
12146;BME280;6136;47.032;15.398;2022-10-13T03:24:42;98168.69;;;8.76;nan
12146;BME280;6136;47.032;15.398;2022-10-13T03:27:11;98164.41;;;8.73;nan
12146;BME280;6136;47.032;15.398;2022-10-13T03:29:40;98165.19;;;8.75;nan
12146;BME280;6136;47.032;15.398;2022-10-13T03:32:08;98178.25;;;8.78;nan
12146;BME280;6136;47.032;15.398;2022-10-13T03:34:36;98172.34;;;8.73;nan
12146;BME280;6136;47.032;15.398;2022-10-13T03:37:04;98180.38;;;8.70;nan
12146;BME280;6136;47.032;15.398;2022-10-13T03:39:40;98172.59;;;8.67;nan
12146;BME280;6136;47.032;15.398;2022-10-13T03:42:10;98157.16;;;8.58;nan
12146;BME280;6136;47.032;15.398;2022-10-13T03:44:39;98165.09;;;8.58;nan
12146;BME280;6136;47.032;15.398;2022-10-13T03:47:07;98170.38;;;8.58;nan
12146;BME280;6136;47.032;15.398;2022-10-13T03:49:36;98166.16;;;8.54;nan
12146;BME280;6136;47.032;15.398;2022-10-13T03:52:04;98162.72;;;8.52;nan
12146;BME280;6136;47.032;15.398;2022-10-13T03:54:33;98177.72;;;8.51;nan
12146;BME280;6136;47.032;15.398;2022-10-13T03:57:01;98168.25;;;8.46;nan
12146;BME280;6136;47.032;15.398;2022-10-13T03:59:31;98171.69;;;8.48;nan
12146;BME280;6136;47.032;15.398;2022-10-13T04:02:02;98182.25;;;8.48;nan
12146;BME280;6136;47.032;15.398;2022-10-13T04:04:30;98170.91;;;8.46;nan
12146;BME280;6136;47.032;15.398;2022-10-13T04:06:59;98172.63;;;8.47;nan
12146;BME280;6136;47.032;15.398;2022-10-13T04:09:27;98166.81;;;8.39;nan
12146;BME280;6136;47.032;15.398;2022-10-13T04:11:56;98174.75;;;8.39;nan
12146;BME280;6136;47.032;15.398;2022-10-13T04:14:24;98175.53;;;8.41;nan
12146;BME280;6136;47.032;15.398;2022-10-13T04:16:59;98169.47;;;8.39;nan
12146;BME280;6136;47.032;15.398;2022-10-13T04:19:27;98170.38;;;8.38;nan
12146;BME280;6136;47.032;15.398;2022-10-13T04:21:57;98180.94;;;8.38;nan
12146;BME280;6136;47.032;15.398;2022-10-13T04:24:25;98163.41;;;8.37;nan
12146;BME280;6136;47.032;15.398;2022-10-13T04:26:53;98166.75;;;8.40;nan
12146;BME280;6136;47.032;15.398;2022-10-13T04:29:22;98153.09;;;8.31;nan
12146;BME280;6136;47.032;15.398;2022-10-13T04:31:51;98156.66;;;8.30;nan
12146;BME280;6136;47.032;15.398;2022-10-13T04:34:21;98165.31;;;8.33;nan
12146;BME280;6136;47.032;15.398;2022-10-13T04:36:49;98158.38;;;8.31;nan
12146;BME280;6136;47.032;15.398;2022-10-13T04:39:18;98160.13;;;8.30;nan
12146;BME280;6136;47.032;15.398;2022-10-13T04:41:48;98168.19;;;8.27;nan
12146;BME280;6136;47.032;15.398;2022-10-13T04:44:17;98153.22;;;8.28;nan
12146;BME280;6136;47.032;15.398;2022-10-13T04:46:45;98162.59;;;8.35;nan
12146;BME280;6136;47.032;15.398;2022-10-13T04:49:14;98167.09;;;8.33;nan
12146;BME280;6136;47.032;15.398;2022-10-13T04:51:44;98173.22;;;8.33;nan
12146;BME280;6136;47.032;15.398;2022-10-13T04:54:12;98164.69;;;8.27;nan
12146;BME280;6136;47.032;15.398;2022-10-13T04:56:42;98163.78;;;8.28;nan
12146;BME280;6136;47.032;15.398;2022-10-13T04:59:11;98164.81;;;8.24;nan
12146;BME280;6136;47.032;15.398;2022-10-13T05:01:39;98174.34;;;8.28;nan
12146;BME280;6136;47.032;15.398;2022-10-13T05:04:12;98172.50;;;8.30;nan
12146;BME280;6136;47.032;15.398;2022-10-13T05:06:41;98171.63;;;8.29;nan
12146;BME280;6136;47.032;15.398;2022-10-13T05:09:31;98174.28;;;8.29;nan
12146;BME280;6136;47.032;15.398;2022-10-13T05:11:59;98174.34;;;8.28;nan
12146;BME280;6136;47.032;15.398;2022-10-13T05:14:27;98175.00;;;8.33;nan
12146;BME280;6136;47.032;15.398;2022-10-13T05:16:58;98163.66;;;8.31;nan
12146;BME280;6136;47.032;15.398;2022-10-13T05:19:27;98175.47;;;8.42;nan
12146;BME280;6136;47.032;15.398;2022-10-13T05:21:58;98171.59;;;8.51;nan
12146;BME280;6136;47.032;15.398;2022-10-13T05:24:27;98169.84;;;8.50;nan
12146;BME280;6136;47.032;15.398;2022-10-13T05:27:05;98174.75;;;8.59;nan
12146;BME280;6136;47.032;15.398;2022-10-13T05:29:33;98172.16;;;8.57;nan
12146;BME280;6136;47.032;15.398;2022-10-13T05:32:02;98175.66;;;8.58;nan
12146;BME280;6136;47.032;15.398;2022-10-13T05:34:31;98176.44;;;8.60;nan
12146;BME280;6136;47.032;15.398;2022-10-13T05:37:00;98178.03;;;8.64;nan
12146;BME280;6136;47.032;15.398;2022-10-13T05:39:29;98172.69;;;8.66;nan
12146;BME280;6136;47.032;15.398;2022-10-13T05:41:57;98176.53;;;8.77;nan
12146;BME280;6136;47.032;15.398;2022-10-13T05:44:27;98178.03;;;8.83;nan
12146;BME280;6136;47.032;15.398;2022-10-13T05:46:59;98174.78;;;8.97;nan
12146;BME280;6136;47.032;15.398;2022-10-13T05:49:32;98179.50;;;9.09;nan
12146;BME280;6136;47.032;15.398;2022-10-13T05:52:06;98172.84;;;9.19;nan
12146;BME280;6136;47.032;15.398;2022-10-13T05:54:38;98170.06;;;9.22;nan
12146;BME280;6136;47.032;15.398;2022-10-13T05:57:13;98177.50;;;9.32;nan
12146;BME280;6136;47.032;15.398;2022-10-13T05:59:49;98169.97;;;9.42;nan
12146;BME280;6136;47.032;15.398;2022-10-13T06:02:21;98174.69;;;9.54;nan
12146;BME280;6136;47.032;15.398;2022-10-13T06:04:52;98179.59;;;9.62;nan
12146;BME280;6136;47.032;15.398;2022-10-13T06:07:22;98182.63;;;9.71;nan
12146;BME280;6136;47.032;15.398;2022-10-13T06:10:06;98170.97;;;9.76;nan
12146;BME280;6136;47.032;15.398;2022-10-13T06:12:38;98186.13;;;9.91;nan
12146;BME280;6136;47.032;15.398;2022-10-13T06:15:09;98190.78;;;10.03;nan
12146;BME280;6136;47.032;15.398;2022-10-13T06:17:38;98198.03;;;10.17;nan
12146;BME280;6136;47.032;15.398;2022-10-13T06:20:07;98198.16;;;10.32;nan
12146;BME280;6136;47.032;15.398;2022-10-13T06:22:37;98192.00;;;10.49;nan
12146;BME280;6136;47.032;15.398;2022-10-13T06:25:07;98191.25;;;10.63;nan
12146;BME280;6136;47.032;15.398;2022-10-13T06:27:35;98192.19;;;10.62;nan
12146;BME280;6136;47.032;15.398;2022-10-13T06:30:05;98190.34;;;10.64;nan
12146;BME280;6136;47.032;15.398;2022-10-13T06:32:37;98196.66;;;10.94;nan
12146;BME280;6136;47.032;15.398;2022-10-13T06:35:06;98181.44;;;10.65;nan
12146;BME280;6136;47.032;15.398;2022-10-13T06:37:36;98187.06;;;10.59;nan
12146;BME280;6136;47.032;15.398;2022-10-13T06:40:09;98190.06;;;10.68;nan
12146;BME280;6136;47.032;15.398;2022-10-13T06:42:38;98184.56;;;10.73;nan
12146;BME280;6136;47.032;15.398;2022-10-13T06:45:09;98189.28;;;10.83;nan
12146;BME280;6136;47.032;15.398;2022-10-13T06:47:40;98208.19;;;10.93;nan
12146;BME280;6136;47.032;15.398;2022-10-13T06:50:08;98199.13;;;10.97;nan
12146;BME280;6136;47.032;15.398;2022-10-13T06:52:37;98195.09;;;10.90;nan
12146;BME280;6136;47.032;15.398;2022-10-13T06:55:06;98191.47;;;11.08;nan
12146;BME280;6136;47.032;15.398;2022-10-13T06:57:35;98189.94;;;11.67;nan
12146;BME280;6136;47.032;15.398;2022-10-13T07:00:07;98192.97;;;11.77;nan
12146;BME280;6136;47.032;15.398;2022-10-13T07:02:36;98181.13;;;11.66;nan
12146;BME280;6136;47.032;15.398;2022-10-13T07:05:07;98183.22;;;11.77;nan
12146;BME280;6136;47.032;15.398;2022-10-13T07:07:35;98187.81;;;11.89;nan
12146;BME280;6136;47.032;15.398;2022-10-13T07:10:04;98191.34;;;12.20;nan
12146;BME280;6136;47.032;15.398;2022-10-13T07:12:32;98184.69;;;12.13;nan
12146;BME280;6136;47.032;15.398;2022-10-13T07:15:01;98180.66;;;12.35;nan
12146;BME280;6136;47.032;15.398;2022-10-13T07:17:29;98179.69;;;12.66;nan
12146;BME280;6136;47.032;15.398;2022-10-13T07:19:57;98181.13;;;12.86;nan
12146;BME280;6136;47.032;15.398;2022-10-13T07:22:32;98184.25;;;13.35;nan
12146;BME280;6136;47.032;15.398;2022-10-13T07:25:00;98170.13;;;13.62;nan
12146;BME280;6136;47.032;15.398;2022-10-13T07:27:29;98177.22;;;14.02;nan
12146;BME280;6136;47.032;15.398;2022-10-13T07:29:57;98175.25;;;14.58;nan
12146;BME280;6136;47.032;15.398;2022-10-13T07:32:25;98167.47;;;14.80;nan
12146;BME280;6136;47.032;15.398;2022-10-13T07:34:54;98165.38;;;15.22;nan
12146;BME280;6136;47.032;15.398;2022-10-13T07:37:22;98161.38;;;15.52;nan
12146;BME280;6136;47.032;15.398;2022-10-13T07:39:53;98170.34;;;16.12;nan
12146;BME280;6136;47.032;15.398;2022-10-13T07:42:21;98169.31;;;16.02;nan
12146;BME280;6136;47.032;15.398;2022-10-13T07:44:50;98157.16;;;15.98;nan
12146;BME280;6136;47.032;15.398;2022-10-13T07:47:18;98152.09;;;16.06;nan
12146;BME280;6136;47.032;15.398;2022-10-13T07:49:47;98145.91;;;16.16;nan
12146;BME280;6136;47.032;15.398;2022-10-13T07:52:16;98149.19;;;16.44;nan
12146;BME280;6136;47.032;15.398;2022-10-13T07:54:44;98146.25;;;16.93;nan
12146;BME280;6136;47.032;15.398;2022-10-13T07:57:15;98143.69;;;17.36;nan
12146;BME280;6136;47.032;15.398;2022-10-13T07:59:48;98138.25;;;17.26;nan
12146;BME280;6136;47.032;15.398;2022-10-13T08:02:17;98137.41;;;17.91;nan
12146;BME280;6136;47.032;15.398;2022-10-13T08:04:46;98141.56;;;17.84;nan
12146;BME280;6136;47.032;15.398;2022-10-13T08:07:14;98133.50;;;18.16;nan
12146;BME280;6136;47.032;15.398;2022-10-13T08:09:43;98143.53;;;19.48;nan
12146;BME280;6136;47.032;15.398;2022-10-13T08:12:13;98137.00;;;18.90;nan
12146;BME280;6136;47.032;15.398;2022-10-13T08:14:41;98138.41;;;19.15;nan
12146;BME280;6136;47.032;15.398;2022-10-13T08:17:11;98143.19;;;19.91;nan
12146;BME280;6136;47.032;15.398;2022-10-13T08:19:40;98129.41;;;22.10;nan
12146;BME280;6136;47.032;15.398;2022-10-13T08:22:08;98128.97;;;22.75;nan
12146;BME280;6136;47.032;15.398;2022-10-13T08:24:38;98139.94;;;21.85;nan
12146;BME280;6136;47.032;15.398;2022-10-13T08:27:12;98133.97;;;23.14;nan
12146;BME280;6136;47.032;15.398;2022-10-13T08:29:45;98128.84;;;23.63;nan
12146;BME280;6136;47.032;15.398;2022-10-13T08:32:36;98130.28;;;25.29;nan
12146;BME280;6136;47.032;15.398;2022-10-13T08:35:05;98124.47;;;23.44;nan
12146;BME280;6136;47.032;15.398;2022-10-13T08:37:34;98125.72;;;22.90;nan
12146;BME280;6136;47.032;15.398;2022-10-13T08:40:03;98121.44;;;23.81;nan
12146;BME280;6136;47.032;15.398;2022-10-13T08:42:31;98111.38;;;23.23;nan
12146;BME280;6136;47.032;15.398;2022-10-13T08:45:03;98117.97;;;22.95;nan
12146;BME280;6136;47.032;15.398;2022-10-13T08:47:53;98118.13;;;22.32;nan
12146;BME280;6136;47.032;15.398;2022-10-13T08:50:26;98117.97;;;22.95;nan
12146;BME280;6136;47.032;15.398;2022-10-13T08:52:57;98112.31;;;25.28;nan
12146;BME280;6136;47.032;15.398;2022-10-13T08:55:30;98120.88;;;27.38;nan
12146;BME280;6136;47.032;15.398;2022-10-13T08:58:01;98116.78;;;25.68;nan
12146;BME280;6136;47.032;15.398;2022-10-13T09:00:31;98114.53;;;24.03;nan
12146;BME280;6136;47.032;15.398;2022-10-13T09:03:13;98117.78;;;23.22;nan
12146;BME280;6136;47.032;15.398;2022-10-13T09:05:49;98122.91;;;24.33;nan
12146;BME280;6136;47.032;15.398;2022-10-13T09:08:24;98119.09;;;23.86;nan
12146;BME280;6136;47.032;15.398;2022-10-13T09:10:54;98110.38;;;24.97;nan
12146;BME280;6136;47.032;15.398;2022-10-13T09:13:24;98106.34;;;24.28;nan
12146;BME280;6136;47.032;15.398;2022-10-13T09:15:54;98105.00;;;23.32;nan
12146;BME280;6136;47.032;15.398;2022-10-13T09:18:27;98100.69;;;23.47;nan
12146;BME280;6136;47.032;15.398;2022-10-13T09:21:10;98101.78;;;23.63;nan
12146;BME280;6136;47.032;15.398;2022-10-13T09:23:43;98096.19;;;23.72;nan
12146;BME280;6136;47.032;15.398;2022-10-13T09:26:18;98100.41;;;24.33;nan
12146;BME280;6136;47.032;15.398;2022-10-13T09:28:48;98102.88;;;24.02;nan
12146;BME280;6136;47.032;15.398;2022-10-13T09:31:22;98111.75;;;24.20;nan
12146;BME280;6136;47.032;15.398;2022-10-13T09:34:01;98102.16;;;25.22;nan
12146;BME280;6136;47.032;15.398;2022-10-13T09:36:30;98107.69;;;24.73;nan
12146;BME280;6136;47.032;15.398;2022-10-13T09:39:09;98101.59;;;26.12;nan
12146;BME280;6136;47.032;15.398;2022-10-13T09:41:40;98105.22;;;28.05;nan
12146;BME280;6136;47.032;15.398;2022-10-13T09:44:12;98095.44;;;28.32;nan
12146;BME280;6136;47.032;15.398;2022-10-13T09:46:49;98090.44;;;28.14;nan
12146;BME280;6136;47.032;15.398;2022-10-13T09:49:40;98091.72;;;29.38;nan
12146;BME280;6136;47.032;15.398;2022-10-13T09:52:15;98091.53;;;31.20;nan
12146;BME280;6136;47.032;15.398;2022-10-13T09:54:46;98089.06;;;27.68;nan
12146;BME280;6136;47.032;15.398;2022-10-13T09:57:21;98085.63;;;29.36;nan
12146;BME280;6136;47.032;15.398;2022-10-13T09:59:56;98081.66;;;29.39;nan
12146;BME280;6136;47.032;15.398;2022-10-13T10:02:43;98084.88;;;28.44;nan
12146;BME280;6136;47.032;15.398;2022-10-13T10:05:22;98077.63;;;29.07;nan
12146;BME280;6136;47.032;15.398;2022-10-13T10:08:01;98080.34;;;28.51;nan
12146;BME280;6136;47.032;15.398;2022-10-13T10:10:35;98066.19;;;29.18;nan
12146;BME280;6136;47.032;15.398;2022-10-13T10:13:09;98069.50;;;29.95;nan
12146;BME280;6136;47.032;15.398;2022-10-13T10:15:49;98068.50;;;30.16;nan
12146;BME280;6136;47.032;15.398;2022-10-13T10:18:31;98067.47;;;28.66;nan
12146;BME280;6136;47.032;15.398;2022-10-13T10:21:07;98070.81;;;28.89;nan
12146;BME280;6136;47.032;15.398;2022-10-13T10:23:45;98072.97;;;27.73;nan
12146;BME280;6136;47.032;15.398;2022-10-13T10:26:17;98061.25;;;27.58;nan
12146;BME280;6136;47.032;15.398;2022-10-13T10:29:05;98059.44;;;29.20;nan
12146;BME280;6136;47.032;15.398;2022-10-13T10:31:51;98057.91;;;27.56;nan
12146;BME280;6136;47.032;15.398;2022-10-13T10:34:36;98055.00;;;27.93;nan
12146;BME280;6136;47.032;15.398;2022-10-13T10:37:15;98046.56;;;26.56;nan
12146;BME280;6136;47.032;15.398;2022-10-13T10:39:51;98050.41;;;26.99;nan
12146;BME280;6136;47.032;15.398;2022-10-13T10:42:47;98043.41;;;28.76;nan
12146;BME280;6136;47.032;15.398;2022-10-13T10:45:22;98045.03;;;27.20;nan
12146;BME280;6136;47.032;15.398;2022-10-13T10:47:54;98034.03;;;27.43;nan
12146;BME280;6136;47.032;15.398;2022-10-13T10:50:27;98041.00;;;26.87;nan
12146;BME280;6136;47.032;15.398;2022-10-13T10:53:01;98035.47;;;27.90;nan
12146;BME280;6136;47.032;15.398;2022-10-13T10:55:36;98023.69;;;29.97;nan
12146;BME280;6136;47.032;15.398;2022-10-13T10:58:19;98022.50;;;28.62;nan
12146;BME280;6136;47.032;15.398;2022-10-13T11:00:54;98023.50;;;29.51;nan
12146;BME280;6136;47.032;15.398;2022-10-13T11:03:36;98021.47;;;31.51;nan
12146;BME280;6136;47.032;15.398;2022-10-13T11:06:33;98006.38;;;29.70;nan
12146;BME280;6136;47.032;15.398;2022-10-13T11:09:03;97998.75;;;29.12;nan
12146;BME280;6136;47.032;15.398;2022-10-13T11:11:38;97996.75;;;31.19;nan
12146;BME280;6136;47.032;15.398;2022-10-13T11:14:28;97990.44;;;29.94;nan
12146;BME280;6136;47.032;15.398;2022-10-13T11:17:26;97992.75;;;31.15;nan
12146;BME280;6136;47.032;15.398;2022-10-13T11:19:55;97985.94;;;33.31;nan
12146;BME280;6136;47.032;15.398;2022-10-13T11:22:26;97992.78;;;31.60;nan
12146;BME280;6136;47.032;15.398;2022-10-13T11:25:07;97983.53;;;30.90;nan
12146;BME280;6136;47.032;15.398;2022-10-13T11:27:51;97979.50;;;29.94;nan
12146;BME280;6136;47.032;15.398;2022-10-13T11:30:41;97973.69;;;30.36;nan
12146;BME280;6136;47.032;15.398;2022-10-13T11:33:33;97968.00;;;30.64;nan
12146;BME280;6136;47.032;15.398;2022-10-13T11:36:36;97965.31;;;31.29;nan
12146;BME280;6136;47.032;15.398;2022-10-13T11:42:56;97970.22;;;28.80;nan
12146;BME280;6136;47.032;15.398;2022-10-13T11:51:40;97955.06;;;31.11;nan
12146;BME280;6136;47.032;15.398;2022-10-13T11:54:31;97948.06;;;31.21;nan
12146;BME280;6136;47.032;15.398;2022-10-13T11:57:17;97941.03;;;30.74;nan
12146;BME280;6136;47.032;15.398;2022-10-13T11:59:47;97942.81;;;28.94;nan
12146;BME280;6136;47.032;15.398;2022-10-13T12:02:22;97943.22;;;29.39;nan
12146;BME280;6136;47.032;15.398;2022-10-13T12:05:00;97935.06;;;28.36;nan
12146;BME280;6136;47.032;15.398;2022-10-13T12:07:31;97941.72;;;28.82;nan
12146;BME280;6136;47.032;15.398;2022-10-13T12:10:04;97938.00;;;27.13;nan
12146;BME280;6136;47.032;15.398;2022-10-13T12:12:34;97935.53;;;29.08;nan
12146;BME280;6136;47.032;15.398;2022-10-13T12:15:26;97932.19;;;27.73;nan
12146;BME280;6136;47.032;15.398;2022-10-13T12:17:55;97923.75;;;29.62;nan
12146;BME280;6136;47.032;15.398;2022-10-13T12:20:25;97914.78;;;28.17;nan
12146;BME280;6136;47.032;15.398;2022-10-13T12:22:55;97923.47;;;27.06;nan
12146;BME280;6136;47.032;15.398;2022-10-13T12:25:26;97910.53;;;26.35;nan
12146;BME280;6136;47.032;15.398;2022-10-13T12:27:59;97918.63;;;28.91;nan
12146;BME280;6136;47.032;15.398;2022-10-13T12:30:29;97905.94;;;30.52;nan
12146;BME280;6136;47.032;15.398;2022-10-13T12:33:03;97908.09;;;31.07;nan
12146;BME280;6136;47.032;15.398;2022-10-13T12:35:32;97908.38;;;30.86;nan
12146;BME280;6136;47.032;15.398;2022-10-13T12:38:06;97911.97;;;29.61;nan
12146;BME280;6136;47.032;15.398;2022-10-13T12:40:37;97908.59;;;29.46;nan
12146;BME280;6136;47.032;15.398;2022-10-13T12:43:06;97902.59;;;30.23;nan
12146;BME280;6136;47.032;15.398;2022-10-13T12:45:34;97903.34;;;30.70;nan
12146;BME280;6136;47.032;15.398;2022-10-13T12:48:02;97905.44;;;27.56;nan
12146;BME280;6136;47.032;15.398;2022-10-13T12:50:35;97909.44;;;27.60;nan
12146;BME280;6136;47.032;15.398;2022-10-13T12:53:15;97892.81;;;27.97;nan
12146;BME280;6136;47.032;15.398;2022-10-13T12:55:54;97897.34;;;30.99;nan
12146;BME280;6136;47.032;15.398;2022-10-13T12:58:27;97885.75;;;30.53;nan
12146;BME280;6136;47.032;15.398;2022-10-13T13:01:07;97895.88;;;31.03;nan
12146;BME280;6136;47.032;15.398;2022-10-13T13:03:37;97886.09;;;31.34;nan
12146;BME280;6136;47.032;15.398;2022-10-13T13:06:23;97881.09;;;29.67;nan
12146;BME280;6136;47.032;15.398;2022-10-13T13:09:21;97881.50;;;29.64;nan
12146;BME280;6136;47.032;15.398;2022-10-13T13:12:20;97879.56;;;27.94;nan
12146;BME280;6136;47.032;15.398;2022-10-13T13:14:50;97879.78;;;26.78;nan
12146;BME280;6136;47.032;15.398;2022-10-13T13:17:26;97874.38;;;28.21;nan
12146;BME280;6136;47.032;15.398;2022-10-13T13:20:21;97879.41;;;27.74;nan
12146;BME280;6136;47.032;15.398;2022-10-13T13:22:51;97871.28;;;26.37;nan
12146;BME280;6136;47.032;15.398;2022-10-13T13:25:19;97872.34;;;25.61;nan
12146;BME280;6136;47.032;15.398;2022-10-13T13:27:49;97880.66;;;28.55;nan
12146;BME280;6136;47.032;15.398;2022-10-13T13:30:19;97867.50;;;26.97;nan
12146;BME280;6136;47.032;15.398;2022-10-13T13:32:48;97867.44;;;27.97;nan
12146;BME280;6136;47.032;15.398;2022-10-13T13:35:16;97873.44;;;25.89;nan
12146;BME280;6136;47.032;15.398;2022-10-13T13:37:47;97873.31;;;27.72;nan
12146;BME280;6136;47.032;15.398;2022-10-13T13:40:18;97876.19;;;27.86;nan
12146;BME280;6136;47.032;15.398;2022-10-13T13:42:46;97871.34;;;26.14;nan
12146;BME280;6136;47.032;15.398;2022-10-13T13:45:17;97866.09;;;26.72;nan
12146;BME280;6136;47.032;15.398;2022-10-13T13:47:46;97870.47;;;27.02;nan
12146;BME280;6136;47.032;15.398;2022-10-13T13:50:16;97856.59;;;26.09;nan
12146;BME280;6136;47.032;15.398;2022-10-13T13:52:54;97870.41;;;26.22;nan
12146;BME280;6136;47.032;15.398;2022-10-13T13:55:23;97873.84;;;25.41;nan
12146;BME280;6136;47.032;15.398;2022-10-13T13:57:55;97862.34;;;24.77;nan
12146;BME280;6136;47.032;15.398;2022-10-13T14:00:25;97871.38;;;24.61;nan
12146;BME280;6136;47.032;15.398;2022-10-13T14:02:53;97863.34;;;25.61;nan
12146;BME280;6136;47.032;15.398;2022-10-13T14:05:22;97870.41;;;24.93;nan